Time;durP1;ratioP1;P1;durP2;ratioP2;P2;SDS_P1;SDS_P2;PMS_P1;PMS_P2;Temp;Humidity;BMP_temperature;BMP_pressure;BME280_temperature;BME280_humidity;BME280_pressure;Samples;Min_cycle;Max_cycle;Signal;HPM_P1;HPM_P2
2021/09/21 00:01:19;;;;;;;9.05;6.72;;;15.10;99.90;;;;;;4974433;28;20303;-76
2021/09/21 00:03:46;;;;;;;9.48;6.43;;;15.10;99.90;;;;;;4974203;28;20230;-74
2021/09/21 00:06:12;;;;;;;8.50;6.22;;;15.10;99.90;;;;;;4974093;28;20209;-75
2021/09/21 00:08:40;;;;;;;8.40;6.03;;;15.10;99.90;;;;;;4974083;28;20698;-76
2021/09/21 00:11:08;;;;;;;9.63;6.70;;;15.10;99.90;;;;;;4974320;28;20210;-74
2021/09/21 00:13:37;;;;;;;8.50;5.88;;;15.10;99.90;;;;;;4974035;28;20231;-74
2021/09/21 00:16:05;;;;;;;6.47;5.78;;;15.20;99.90;;;;;;4973912;28;20231;-73
2021/09/21 00:18:32;;;;;;;8.88;6.10;;;15.30;99.90;;;;;;4974076;28;20233;-76
2021/09/21 00:20:59;;;;;;;7.70;5.90;;;15.40;99.90;;;;;;4974272;28;20571;-75
2021/09/21 00:23:27;;;;;;;8.40;6.38;;;15.60;99.90;;;;;;4973812;28;20229;-77
2021/09/21 00:25:54;;;;;;;8.13;6.32;;;15.60;99.90;;;;;;4973719;28;20749;-76
2021/09/21 00:28:22;;;;;;;7.85;6.05;;;15.60;99.90;;;;;;4974024;28;20213;-74
2021/09/21 00:30:51;;;;;;;10.70;7.43;;;15.60;99.90;;;;;;4973873;28;20232;-74
2021/09/21 00:33:21;;;;;;;10.32;7.07;;;15.50;99.90;;;;;;4973024;28;20279;-74
2021/09/21 00:35:50;;;;;;;9.38;6.63;;;15.40;99.90;;;;;;4973507;28;20213;-71
2021/09/21 00:38:18;;;;;;;9.68;6.90;;;15.30;99.90;;;;;;4973409;28;20299;-72
2021/09/21 00:40:47;;;;;;;10.38;7.20;;;15.20;99.90;;;;;;4973970;28;20211;-71
2021/09/21 00:43:18;;;;;;;10.77;7.68;;;15.10;99.90;;;;;;4973482;28;20666;-71
2021/09/21 00:45:44;;;;;;;10.63;7.10;;;15.10;99.90;;;;;;4973814;28;20217;-72
2021/09/21 00:48:13;;;;;;;12.07;7.47;;;15.00;99.90;;;;;;4973641;28;20215;-72
2021/09/21 00:50:39;;;;;;;10.05;6.53;;;15.00;99.90;;;;;;4973786;28;20317;-73
2021/09/21 00:53:06;;;;;;;9.50;6.53;;;15.10;99.90;;;;;;4973519;28;20208;-73
2021/09/21 00:55:33;;;;;;;9.02;6.10;;;15.10;99.90;;;;;;4973404;28;20575;-73
2021/09/21 00:58:00;;;;;;;7.65;6.25;;;15.20;99.90;;;;;;4973449;28;20666;-72
2021/09/21 01:00:27;;;;;;;9.38;7.63;;;15.20;99.90;;;;;;4973331;28;20214;-73
2021/09/21 01:02:54;;;;;;;9.45;6.75;;;15.10;99.90;;;;;;4973479;28;20207;-73
2021/09/21 01:05:23;;;;;;;7.82;6.07;;;14.90;99.90;;;;;;4973265;28;20236;-74
2021/09/21 01:07:50;;;;;;;8.85;6.90;;;14.90;99.90;;;;;;4973380;28;20581;-74
2021/09/21 01:10:19;;;;;;;11.07;7.50;;;15.00;99.90;;;;;;4973330;28;20241;-77
2021/09/21 01:12:46;;;;;;;7.65;6.30;;;15.00;99.90;;;;;;4973379;28;20579;-75
2021/09/21 01:15:14;;;;;;;13.25;6.25;;;14.90;99.90;;;;;;4973092;28;20686;-74
2021/09/21 01:17:41;;;;;;;9.82;7.75;;;15.00;99.90;;;;;;4973523;28;20208;-73
2021/09/21 01:20:10;;;;;;;10.50;7.68;;;15.00;99.90;;;;;;4973504;28;20764;-74
2021/09/21 01:22:38;;;;;;;10.38;6.68;;;14.90;99.90;;;;;;4973326;28;20221;-75
2021/09/21 01:25:07;;;;;;;10.35;7.13;;;14.70;99.90;;;;;;4973035;28;20323;-75
2021/09/21 01:27:34;;;;;;;10.00;6.50;;;14.60;99.90;;;;;;4973178;28;20204;-74
2021/09/21 01:30:01;;;;;;;10.30;7.95;;;14.60;99.90;;;;;;4972962;28;20227;-75
2021/09/21 01:32:28;;;;;;;11.07;7.25;;;14.40;99.90;;;;;;4973315;28;20218;-75
2021/09/21 01:34:55;;;;;;;10.77;6.82;;;14.40;99.90;;;;;;4973122;28;20747;-75
2021/09/21 01:37:24;;;;;;;10.63;7.60;;;14.40;99.90;;;;;;4972955;28;20695;-75
2021/09/21 01:39:52;;;;;;;8.98;7.03;;;14.40;99.90;;;;;;4973068;28;20203;-74
2021/09/21 01:42:19;;;;;;;9.43;7.07;;;14.40;99.90;;;;;;4972992;28;20211;-74
2021/09/21 01:44:46;;;;;;;10.68;7.47;;;14.40;99.90;;;;;;4973002;28;20232;-75
2021/09/21 01:47:14;;;;;;;9.32;6.82;;;14.40;99.90;;;;;;4976203;28;20203;-75
2021/09/21 01:49:49;;;;;;;11.70;6.78;;;14.50;99.90;;;;;;4976804;28;20236;-74
2021/09/21 01:52:18;;;;;;;11.48;7.18;;;14.50;99.90;;;;;;4976725;28;20301;-74
2021/09/21 02:00:13;;;;;;;10.32;7.13;;;14.40;99.90;;;;;;4976628;28;20202;-72
2021/09/21 02:02:39;;;;;;;10.68;7.00;;;14.40;99.90;;;;;;4976372;28;20210;-73
2021/09/21 02:05:07;;;;;;;10.63;7.30;;;14.40;99.90;;;;;;4976219;28;20231;-73
2021/09/21 02:07:34;;;;;;;11.10;7.13;;;14.40;99.90;;;;;;4976087;28;20250;-73
2021/09/21 02:10:01;;;;;;;9.73;6.95;;;14.40;99.90;;;;;;4976415;28;20227;-74
2021/09/21 02:12:30;;;;;;;11.02;7.07;;;14.40;99.90;;;;;;4976506;28;20214;-74
2021/09/21 02:14:58;;;;;;;9.10;7.00;;;14.40;99.90;;;;;;4976228;28;20247;-74
2021/09/21 02:17:26;;;;;;;11.75;7.35;;;14.40;99.90;;;;;;4976290;28;20209;-72
2021/09/21 02:19:53;;;;;;;8.57;6.75;;;14.40;99.90;;;;;;4976049;28;20203;-73
2021/09/21 02:22:20;;;;;;;9.20;6.45;;;14.40;99.90;;;;;;4976352;28;20212;-75
2021/09/21 02:24:47;;;;;;;8.40;6.90;;;14.40;99.90;;;;;;4976359;28;20226;-74
2021/09/21 02:27:13;;;;;;;10.23;7.32;;;14.40;99.90;;;;;;4975875;28;20208;-74
2021/09/21 02:29:42;;;;;;;10.38;6.75;;;14.30;99.90;;;;;;4977412;28;20225;-73
2021/09/21 02:32:08;;;;;;;9.27;7.70;;;14.40;99.90;;;;;;4977386;28;20214;-72
2021/09/21 02:34:35;;;;;;;11.05;7.47;;;14.40;99.90;;;;;;4977628;28;20716;-73
2021/09/21 02:37:04;;;;;;;8.25;6.22;;;14.30;99.90;;;;;;4977310;28;20691;-73
2021/09/21 02:39:30;;;;;;;10.63;7.03;;;14.40;99.90;;;;;;4976960;28;20242;-73
2021/09/21 02:41:57;;;;;;;10.15;7.45;;;14.30;99.90;;;;;;4976715;28;20679;-73
2021/09/21 02:44:24;;;;;;;9.65;6.93;;;14.40;99.90;;;;;;4976813;28;20712;-73
2021/09/21 02:46:52;;;;;;;9.68;7.20;;;14.50;99.90;;;;;;4977113;28;20303;-73
2021/09/21 02:49:19;;;;;;;13.82;7.35;;;14.50;99.90;;;;;;4976990;28;20262;-73
2021/09/21 02:51:46;;;;;;;10.52;7.60;;;14.40;99.90;;;;;;4976777;28;20210;-73
2021/09/21 02:54:13;;;;;;;10.52;7.75;;;14.30;99.90;;;;;;4976833;28;20258;-73
2021/09/21 02:56:40;;;;;;;10.52;7.20;;;14.20;99.90;;;;;;4976353;28;20642;-73
2021/09/21 02:59:06;;;;;;;11.75;7.50;;;14.20;99.90;;;;;;4976934;28;20207;-73
2021/09/21 03:01:33;;;;;;;13.65;7.88;;;14.40;99.90;;;;;;4976494;28;20294;-73
2021/09/21 03:04:05;;;;;;;11.15;7.32;;;14.30;99.90;;;;;;4976712;28;20579;-73
2021/09/21 03:06:34;;;;;;;9.50;7.13;;;14.30;99.90;;;;;;4976613;28;20213;-73
2021/09/21 03:09:09;;;;;;;12.25;7.40;;;14.30;99.90;;;;;;4976735;28;20213;-73
2021/09/21 03:11:41;;;;;;;10.50;7.03;;;14.30;99.90;;;;;;4976368;28;20327;-73
2021/09/21 03:19:37;;;;;;;11.50;7.93;;;14.20;99.90;;;;;;4976571;28;20285;-73
2021/09/21 03:22:04;;;;;;;10.00;7.20;;;14.20;99.90;;;;;;4976120;28;20284;-73
2021/09/21 03:24:32;;;;;;;11.68;7.97;;;14.20;99.90;;;;;;4976115;28;20227;-73
2021/09/21 03:27:00;;;;;;;11.00;7.93;;;14.20;99.90;;;;;;4976326;28;20611;-73
2021/09/21 03:29:28;;;;;;;12.77;7.43;;;14.20;99.90;;;;;;4976169;28;20212;-73
2021/09/21 03:31:55;;;;;;;9.60;7.55;;;14.10;99.90;;;;;;4975834;28;20203;-73
2021/09/21 03:34:21;;;;;;;9.15;7.32;;;14.10;99.90;;;;;;4975941;28;20743;-73
2021/09/21 03:36:50;;;;;;;10.30;6.88;;;14.20;99.90;;;;;;4976267;28;20303;-73
2021/09/21 03:39:16;;;;;;;10.68;7.25;;;14.30;99.90;;;;;;4976018;28;20301;-73
2021/09/21 03:41:43;;;;;;;9.90;7.55;;;14.40;99.90;;;;;;4976000;28;20565;-74
2021/09/21 03:44:10;;;;;;;10.50;8.30;;;14.40;99.90;;;;;;4975951;28;20228;-73
2021/09/21 03:46:37;;;;;;;11.68;7.53;;;14.40;99.90;;;;;;4976076;28;20211;-73
2021/09/21 03:49:04;;;;;;;9.40;7.57;;;14.30;99.90;;;;;;4975878;28;20302;-73
2021/09/21 03:51:31;;;;;;;10.38;7.50;;;14.40;99.90;;;;;;4975709;28;20237;-73
2021/09/21 03:53:59;;;;;;;12.60;8.35;;;14.30;99.90;;;;;;4975691;28;20733;-73
2021/09/21 03:56:26;;;;;;;11.68;7.00;;;14.30;99.90;;;;;;4975791;28;20586;-73
2021/09/21 03:58:53;;;;;;;10.73;7.90;;;14.20;99.90;;;;;;4975468;28;20297;-73
2021/09/21 04:01:20;;;;;;;12.65;8.07;;;14.10;99.90;;;;;;4975505;28;20212;-73
2021/09/21 04:03:46;;;;;;;9.95;6.85;;;14.10;99.90;;;;;;4975483;28;20661;-73
2021/09/21 04:06:13;;;;;;;10.23;7.20;;;14.00;99.90;;;;;;4975552;28;20208;-73
2021/09/21 04:08:41;;;;;;;10.27;7.25;;;14.00;99.90;;;;;;4974520;28;20731;-73
2021/09/21 04:11:09;;;;;;;9.40;6.95;;;14.00;99.90;;;;;;4975278;28;20227;-74
2021/09/21 04:13:36;;;;;;;10.88;7.28;;;13.90;99.90;;;;;;4975371;28;20327;-73
2021/09/21 04:16:03;;;;;;;11.70;7.03;;;14.00;99.90;;;;;;4975495;28;20210;-73
2021/09/21 04:18:29;;;;;;;10.23;7.60;;;13.90;99.90;;;;;;4975276;28;20213;-73
2021/09/21 04:20:56;;;;;;;9.18;6.78;;;14.00;99.90;;;;;;4975303;28;20301;-73
2021/09/21 04:23:23;;;;;;;11.32;6.93;;;13.90;99.90;;;;;;4975041;28;20201;-73
2021/09/21 04:25:50;;;;;;;10.15;6.90;;;13.90;99.90;;;;;;4975333;28;20631;-73
2021/09/21 04:28:20;;;;;;;10.27;6.53;;;14.00;99.90;;;;;;4975243;28;20293;-73
2021/09/21 04:30:47;;;;;;;9.82;7.07;;;14.10;99.90;;;;;;4975080;28;20566;-73
2021/09/21 04:33:14;;;;;;;12.30;7.82;;;14.20;99.90;;;;;;4974604;28;20305;-73
2021/09/21 04:35:42;;;;;;;11.68;7.68;;;14.20;99.90;;;;;;4975134;28;20203;-73
2021/09/21 04:38:09;;;;;;;10.10;7.57;;;14.10;99.90;;;;;;4975093;28;20610;-73
2021/09/21 04:40:36;;;;;;;9.93;7.22;;;14.10;99.90;;;;;;4974837;28;20683;-73
2021/09/21 04:43:03;;;;;;;10.65;7.18;;;13.90;99.90;;;;;;4974847;28;20301;-73
2021/09/21 04:45:31;;;;;;;10.35;7.45;;;13.80;99.90;;;;;;4975062;28;20585;-73
2021/09/21 04:47:58;;;;;;;11.25;7.68;;;13.70;99.90;;;;;;4974895;28;20651;-73
2021/09/21 04:50:25;;;;;;;10.77;7.20;;;13.70;99.90;;;;;;4974630;28;20764;-73
2021/09/21 04:52:52;;;;;;;9.43;7.35;;;13.80;99.90;;;;;;4974798;28;20301;-73
2021/09/21 04:55:19;;;;;;;9.73;7.55;;;13.70;99.90;;;;;;4974879;28;20318;-73
2021/09/21 04:57:45;;;;;;;10.23;7.55;;;13.60;99.90;;;;;;4974619;28;20213;-73
2021/09/21 05:00:14;;;;;;;10.77;7.18;;;13.50;99.90;;;;;;4974814;28;20296;-73
2021/09/21 05:02:42;;;;;;;11.32;7.78;;;13.40;99.90;;;;;;4974389;28;20250;-73
2021/09/21 05:05:10;;;;;;;13.65;8.30;;;13.40;99.90;;;;;;4974865;28;20309;-73
2021/09/21 05:07:37;;;;;;;12.43;8.13;;;13.40;99.90;;;;;;4974863;28;20209;-73
2021/09/21 05:10:04;;;;;;;11.90;8.15;;;13.60;99.90;;;;;;4974840;28;20739;-73
2021/09/21 05:12:31;;;;;;;10.18;7.35;;;13.50;99.90;;;;;;4974571;28;20206;-73
2021/09/21 05:14:58;;;;;;;9.30;6.82;;;13.70;99.90;;;;;;4974658;28;20225;-73
2021/09/21 05:17:24;;;;;;;10.70;7.47;;;13.70;99.90;;;;;;4974722;28;20293;-73
2021/09/21 05:19:53;;;;;;;9.77;7.05;;;13.60;99.90;;;;;;4975933;28;20209;-73
2021/09/21 05:22:20;;;;;;;10.70;7.65;;;13.70;99.90;;;;;;4978412;28;20296;-73
2021/09/21 05:24:46;;;;;;;11.25;6.82;;;13.80;99.90;;;;;;4978458;28;20226;-73
2021/09/21 05:27:13;;;;;;;9.77;6.90;;;13.70;99.90;;;;;;4978460;28;20203;-73
2021/09/21 05:29:40;;;;;;;8.85;6.50;;;13.80;99.90;;;;;;4978378;28;20304;-72
2021/09/21 05:32:07;;;;;;;10.60;7.20;;;13.60;99.90;;;;;;4977816;28;20708;-73
2021/09/21 05:34:34;;;;;;;10.70;7.75;;;13.40;99.90;;;;;;4978055;28;20316;-73
2021/09/21 05:37:03;;;;;;;11.05;7.72;;;13.30;99.90;;;;;;4978172;28;20300;-73
2021/09/21 05:39:30;;;;;;;12.07;7.00;;;13.10;99.90;;;;;;4978276;28;20591;-73
2021/09/21 05:41:56;;;;;;;9.85;7.40;;;13.30;99.90;;;;;;4977896;28;20297;-73
2021/09/21 05:44:23;;;;;;;9.35;6.90;;;13.40;99.90;;;;;;4977866;28;20231;-73
2021/09/21 05:46:51;;;;;;;10.05;7.13;;;13.50;99.90;;;;;;4977939;28;20214;-73
2021/09/21 05:49:18;;;;;;;16.70;7.50;;;13.60;99.90;;;;;;4978111;28;20206;-73
2021/09/21 05:51:45;;;;;;;11.57;7.70;;;13.80;99.90;;;;;;4977735;28;20223;-73
2021/09/21 05:54:13;;;;;;;9.48;7.15;;;13.90;99.90;;;;;;4977983;28;20237;-73
2021/09/21 05:56:40;;;;;;;9.80;6.70;;;14.00;99.90;;;;;;4977796;28;20219;-73
2021/09/21 05:59:07;;;;;;;10.43;6.47;;;14.00;99.90;;;;;;4977944;28;20202;-73
2021/09/21 06:01:35;;;;;;;11.55;6.97;;;13.90;99.90;;;;;;4977631;28;20199;-73
2021/09/21 06:04:02;;;;;;;8.88;6.43;;;13.80;99.90;;;;;;4977640;28;20232;-73
2021/09/21 06:06:29;;;;;;;8.10;6.35;;;13.70;99.90;;;;;;4977911;28;20595;-73
2021/09/21 06:08:56;;;;;;;9.45;6.88;;;13.90;99.90;;;;;;4978007;28;20206;-73
2021/09/21 06:11:28;;;;;;;8.75;6.28;;;13.90;99.90;;;;;;4977487;28;20314;-73
2021/09/21 06:13:56;;;;;;;9.25;6.63;;;14.00;99.90;;;;;;4977610;28;20580;-73
2021/09/21 06:16:23;;;;;;;9.48;6.57;;;14.00;99.90;;;;;;4977603;28;20265;-73
2021/09/21 06:18:50;;;;;;;9.10;6.32;;;14.20;99.90;;;;;;4977571;28;20630;-73
2021/09/21 06:21:17;;;;;;;10.05;6.75;;;14.20;99.90;;;;;;4977324;28;20203;-72
2021/09/21 06:23:44;;;;;;;9.35;7.35;;;14.20;99.90;;;;;;4977292;28;20238;-73
2021/09/21 06:26:11;;;;;;;11.23;7.20;;;14.10;99.90;;;;;;4977206;28;20206;-73
2021/09/21 06:28:39;;;;;;;10.45;7.25;;;14.00;99.90;;;;;;4977407;28;20214;-73
2021/09/21 06:31:06;;;;;;;8.95;6.55;;;13.80;99.90;;;;;;4976255;28;20232;-72
2021/09/21 06:33:33;;;;;;;9.45;6.88;;;13.70;99.90;;;;;;4976849;28;20321;-73
2021/09/21 06:35:59;;;;;;;10.10;7.63;;;13.80;99.90;;;;;;4977113;28;20301;-73
2021/09/21 06:38:26;;;;;;;9.82;6.57;;;13.50;99.90;;;;;;4977147;28;20301;-73
2021/09/21 06:40:53;;;;;;;11.20;7.75;;;13.40;99.90;;;;;;4976940;28;20682;-72
2021/09/21 06:43:20;;;;;;;10.55;7.00;;;13.30;99.90;;;;;;4976885;28;20211;-73
2021/09/21 06:45:48;;;;;;;10.73;6.70;;;13.30;99.90;;;;;;4976827;28;20300;-73
2021/09/21 06:48:15;;;;;;;9.10;7.20;;;13.30;99.90;;;;;;4977034;28;20298;-73
2021/09/21 06:50:42;;;;;;;9.50;6.90;;;13.40;99.90;;;;;;4976642;28;20296;-73
2021/09/21 06:53:09;;;;;;;10.20;6.95;;;13.40;99.90;;;;;;4976858;28;20296;-73
2021/09/21 06:55:35;;;;;;;11.95;8.30;;;13.30;99.90;;;;;;4977001;28;20623;-73
2021/09/21 06:58:02;;;;;;;10.45;6.57;;;13.30;99.90;;;;;;4976884;28;20206;-73
2021/09/21 07:00:29;;;;;;;10.80;7.45;;;13.20;99.90;;;;;;4976872;28;20312;-73
2021/09/21 07:02:59;;;;;;;9.85;7.57;;;13.30;99.90;;;;;;4976413;28;20212;-73
2021/09/21 07:05:25;;;;;;;11.10;6.57;;;13.20;99.90;;;;;;4976621;28;20226;-73
2021/09/21 07:07:53;;;;;;;10.05;7.13;;;13.30;99.90;;;;;;4976466;28;20687;-73
2021/09/21 07:10:20;;;;;;;11.23;8.15;;;13.30;99.90;;;;;;4976695;28;20202;-73
2021/09/21 07:12:48;;;;;;;11.48;7.22;;;13.20;99.90;;;;;;4976395;28;20655;-73
2021/09/21 07:15:15;;;;;;;10.90;7.07;;;13.30;99.90;;;;;;4976550;28;20232;-73
2021/09/21 07:17:42;;;;;;;10.25;7.43;;;13.40;99.90;;;;;;4976501;28;20206;-73
2021/09/21 07:20:12;;;;;;;10.55;6.55;;;13.40;99.90;;;;;;4976394;28;20534;-73
2021/09/21 07:22:39;;;;;;;10.93;7.55;;;13.40;99.90;;;;;;4976209;28;20568;-73
2021/09/21 07:25:06;;;;;;;11.18;7.82;;;13.40;99.90;;;;;;4976343;28;20226;-73
2021/09/21 07:27:33;;;;;;;9.73;6.85;;;13.40;99.90;;;;;;4976285;28;20206;-73
2021/09/21 07:30:00;;;;;;;9.07;7.50;;;13.40;99.90;;;;;;4970336;28;20202;-76
2021/09/21 07:32:27;;;;;;;9.48;6.90;;;13.50;99.90;;;;;;4981263;28;20317;-76
2021/09/21 07:34:54;;;;;;;12.68;7.97;;;13.70;99.90;;;;;;4975144;28;20228;-75
2021/09/21 07:37:22;;;;;;;9.80;6.55;;;13.80;99.90;;;;;;4975020;28;20220;-75
2021/09/21 07:39:49;;;;;;;8.85;6.60;;;13.60;99.90;;;;;;4975679;28;20299;-71
2021/09/21 07:42:17;;;;;;;10.52;7.53;;;13.80;99.90;;;;;;4974970;28;20479;-75
2021/09/21 07:44:45;;;;;;;9.90;6.72;;;14.00;99.90;;;;;;4974521;28;20588;-75
2021/09/21 07:47:12;;;;;;;10.35;7.13;;;14.20;99.90;;;;;;4974551;28;20207;-73
2021/09/21 07:49:39;;;;;;;9.25;6.50;;;14.20;99.90;;;;;;4975117;28;20211;-72
2021/09/21 07:52:06;;;;;;;10.02;7.47;;;14.20;99.90;;;;;;4974144;28;20596;-74
2021/09/21 07:54:34;;;;;;;9.15;6.63;;;14.20;99.90;;;;;;4974391;28;20231;-73
2021/09/21 07:57:02;;;;;;;10.70;7.22;;;14.20;99.90;;;;;;4974408;28;20703;-74
2021/09/21 07:59:29;;;;;;;7.88;6.55;;;14.40;99.90;;;;;;4974520;28;20291;-74
2021/09/21 08:01:56;;;;;;;10.10;6.88;;;14.40;99.90;;;;;;4975513;28;20199;-73
2021/09/21 08:04:23;;;;;;;10.05;6.20;;;14.50;99.90;;;;;;4976226;28;20263;-74
2021/09/21 08:06:50;;;;;;;8.10;6.25;;;14.70;99.90;;;;;;4976486;28;20234;-74
2021/09/21 08:09:18;;;;;;;9.35;6.78;;;14.80;99.90;;;;;;4976675;28;20217;-74
2021/09/21 08:11:46;;;;;;;9.20;7.18;;;14.80;99.90;;;;;;4976040;28;20233;-74
2021/09/21 08:14:14;;;;;;;8.45;6.18;;;14.80;99.90;;;;;;4975310;28;20239;-73
2021/09/21 08:16:40;;;;;;;7.50;5.63;;;14.60;99.90;;;;;;4975521;28;20209;-73
2021/09/21 08:19:07;;;;;;;8.85;6.50;;;14.60;99.90;;;;;;4975299;28;20298;-73
2021/09/21 08:21:34;;;;;;;6.75;5.50;;;14.80;99.90;;;;;;4975144;28;20689;-74
2021/09/21 08:24:02;;;;;;;11.15;6.70;;;15.00;99.90;;;;;;4975388;28;20602;-74
2021/09/21 08:26:28;;;;;;;8.48;5.95;;;15.20;99.90;;;;;;4975197;28;20209;-74
2021/09/21 08:28:57;;;;;;;8.60;6.38;;;15.30;99.90;;;;;;4975357;28;20635;-73
2021/09/21 08:31:23;;;;;;;7.15;5.80;;;15.20;99.90;;;;;;4975145;28;20798;-74
2021/09/21 08:33:51;;;;;;;5.68;5.10;;;15.30;99.90;;;;;;4975467;28;20323;-73
2021/09/21 08:36:18;;;;;;;5.97;4.90;;;15.40;99.90;;;;;;4975503;28;20687;-74
2021/09/21 08:38:45;;;;;;;8.73;5.30;;;15.50;99.50;;;;;;4975336;28;20300;-74
2021/09/21 08:41:12;;;;;;;6.28;5.50;;;15.40;99.40;;;;;;4975387;28;20303;-74
2021/09/21 08:43:38;;;;;;;7.22;5.22;;;15.40;98.80;;;;;;4975536;28;20231;-74
2021/09/21 08:46:07;;;;;;;8.27;5.20;;;15.40;97.90;;;;;;4975458;28;20214;-74
2021/09/21 08:48:33;;;;;;;8.00;6.30;;;15.50;98.10;;;;;;4975422;28;20208;-74
2021/09/21 08:51:00;;;;;;;7.90;5.72;;;15.50;97.10;;;;;;4975260;28;20209;-74
2021/09/21 08:53:27;;;;;;;7.47;5.22;;;15.50;96.60;;;;;;4975662;28;20232;-74
2021/09/21 08:55:55;;;;;;;6.18;4.80;;;15.50;96.80;;;;;;4975512;28;20296;-74
2021/09/21 08:58:24;;;;;;;7.10;6.03;;;15.50;96.80;;;;;;4975693;28;20572;-74
2021/09/21 09:00:51;;;;;;;6.55;5.43;;;15.40;97.20;;;;;;4975767;28;20284;-74
2021/09/21 09:03:21;;;;;;;7.75;5.30;;;15.30;97.10;;;;;;4975159;28;20658;-74
2021/09/21 09:05:49;;;;;;;5.95;5.35;;;15.40;97.10;;;;;;4975381;28;20209;-74
2021/09/21 09:08:29;;;;;;;5.63;4.88;;;15.60;96.60;;;;;;4975262;28;20225;-74
2021/09/21 09:11:11;;;;;;;6.25;5.07;;;15.80;96.60;;;;;;4975222;28;20216;-74
2021/09/21 09:13:38;;;;;;;6.70;5.10;;;16.10;96.10;;;;;;4974982;28;20289;-73
2021/09/21 09:16:11;;;;;;;6.70;5.05;;;16.30;96.20;;;;;;4975103;28;20210;-73
2021/09/21 09:18:40;;;;;;;7.75;5.80;;;16.50;95.80;;;;;;4975640;28;20292;-74
2021/09/21 09:21:07;;;;;;;8.45;5.53;;;16.70;95.00;;;;;;4975388;28;20252;-74
2021/09/21 09:23:33;;;;;;;6.75;5.07;;;16.90;95.10;;;;;;4975229;28;20230;-74
2021/09/21 09:26:01;;;;;;;6.20;4.93;;;17.20;95.60;;;;;;4975065;28;20293;-74
2021/09/21 09:28:28;;;;;;;7.65;6.07;;;17.30;94.40;;;;;;4974919;28;20231;-74
2021/09/21 09:30:57;;;;;;;5.88;5.28;;;17.20;92.60;;;;;;4975131;28;20577;-74
2021/09/21 09:33:24;;;;;;;6.78;5.13;;;17.00;93.60;;;;;;4974834;28;20651;-74
2021/09/21 09:35:52;;;;;;;6.13;5.13;;;17.00;94.00;;;;;;4975251;28;20308;-74
2021/09/21 09:38:21;;;;;;;7.28;5.65;;;16.90;92.70;;;;;;4975173;28;20209;-74
2021/09/21 09:40:51;;;;;;;7.75;5.30;;;16.80;91.90;;;;;;4975009;28;20211;-74
2021/09/21 09:43:20;;;;;;;6.75;5.63;;;16.70;92.20;;;;;;4974854;28;20597;-74
2021/09/21 09:45:49;;;;;;;6.20;5.25;;;16.80;93.00;;;;;;4974765;28;20206;-74
2021/09/21 09:48:18;;;;;;;6.85;5.18;;;16.60;92.80;;;;;;4974511;28;20209;-74
2021/09/21 09:50:47;;;;;;;8.35;5.68;;;16.50;93.10;;;;;;4974872;28;20206;-74
2021/09/21 09:53:17;;;;;;;7.50;5.65;;;16.30;93.30;;;;;;4974190;28;20320;-75
2021/09/21 09:55:46;;;;;;;5.35;4.40;;;16.30;92.70;;;;;;4974845;28;20612;-74
2021/09/21 09:58:14;;;;;;;7.30;4.75;;;16.50;92.90;;;;;;4975061;28;20201;-74
2021/09/21 10:00:41;;;;;;;7.18;5.20;;;16.70;94.30;;;;;;4975642;28;20606;-74
2021/09/21 10:03:09;;;;;;;8.45;5.72;;;16.80;94.30;;;;;;4974299;28;20214;-74
2021/09/21 10:05:37;;;;;;;7.63;5.68;;;17.10;94.10;;;;;;4974271;28;20214;-74
2021/09/21 10:08:05;;;;;;;6.07;4.90;;;17.20;92.20;;;;;;4977395;28;20301;-74
2021/09/21 10:10:35;;;;;;;5.30;4.80;;;17.70;92.00;;;;;;4978238;28;20239;-74
2021/09/21 10:13:03;;;;;;;6.50;5.50;;;19.10;90.30;;;;;;4978169;28;20239;-74
2021/09/21 10:15:31;;;;;;;5.77;5.17;;;20.40;85.20;;;;;;4977728;28;20947;-74
2021/09/21 10:18:00;;;;;;;5.67;5.03;;;20.30;80.90;;;;;;4978460;28;20448;-74
2021/09/21 10:20:32;;;;;;;5.87;4.80;;;20.30;81.50;;;;;;4978061;28;20939;-74
2021/09/21 10:22:59;;;;;;;8.37;5.60;;;20.40;80.60;;;;;;4977704;28;20534;-74
2021/09/21 10:25:29;;;;;;;6.63;5.17;;;20.30;79.60;;;;;;4978073;28;20488;-74
2021/09/21 10:27:58;;;;;;;5.90;5.00;;;20.50;81.40;;;;;;4977869;28;20445;-75
2021/09/21 10:30:29;;;;;;;6.60;5.13;;;20.50;81.80;;;;;;4978666;28;20452;-74
2021/09/21 10:32:57;;;;;;;6.17;5.20;;;20.40;79.30;;;;;;4977781;28;20551;-75
2021/09/21 10:35:29;;;;;;;5.97;5.33;;;20.00;79.00;;;;;;4977489;28;20551;-74
2021/09/21 10:38:05;;;;;;;6.67;4.97;;;19.80;80.60;;;;;;4977674;28;20917;-74
2021/09/21 10:40:38;;;;;;;5.90;5.00;;;19.60;81.00;;;;;;4977953;28;20454;-74
2021/09/21 10:43:21;;;;;;;7.43;5.50;;;19.40;82.30;;;;;;4977214;28;20534;-74
2021/09/21 10:45:49;;;;;;;5.50;4.97;;;19.40;82.10;;;;;;4977743;28;20924;-74
2021/09/21 10:48:21;;;;;;;7.10;5.57;;;19.30;82.40;;;;;;4977428;28;20925;-74
2021/09/21 10:50:55;;;;;;;5.53;4.80;;;19.30;81.20;;;;;;4977344;28;20446;-74
2021/09/21 10:53:23;;;;;;;5.80;5.20;;;19.30;83.60;;;;;;4977177;28;20485;-74
2021/09/21 10:55:59;;;;;;;8.57;5.00;;;19.50;81.10;;;;;;4977486;28;20446;-74
2021/09/21 10:58:28;;;;;;;6.10;4.67;;;19.90;81.80;;;;;;4977931;28;20818;-74
2021/09/21 11:00:55;;;;;;;6.50;5.10;;;20.70;80.20;;;;;;4977042;28;20540;-74
2021/09/21 11:03:24;;;;;;;5.83;4.90;;;21.30;76.50;;;;;;4977538;28;20453;-74
2021/09/21 11:05:51;;;;;;;5.33;4.87;;;21.80;75.20;;;;;;4977787;28;20445;-74
2021/09/21 11:08:18;;;;;;;6.07;5.00;;;22.40;75.20;;;;;;4977080;28;20449;-74
2021/09/21 11:10:49;;;;;;;6.10;5.00;;;23.40;67.10;;;;;;4976806;28;20482;-74
2021/09/21 11:13:18;;;;;;;6.13;5.53;;;23.00;64.70;;;;;;4976533;28;20486;-74
2021/09/21 11:15:47;;;;;;;5.53;4.53;;;22.60;65.30;;;;;;4976970;28;20545;-74
2021/09/21 11:18:16;;;;;;;6.10;4.97;;;22.70;65.80;;;;;;4976721;28;20537;-74
2021/09/21 11:20:48;;;;;;;5.80;4.73;;;21.90;66.90;;;;;;4977279;28;20445;-74
2021/09/21 11:23:17;;;;;;;7.00;5.10;;;21.70;69.50;;;;;;4977101;28;20544;-73
2021/09/21 11:25:44;;;;;;;5.43;4.93;;;21.60;67.90;;;;;;4977118;28;20517;-74
2021/09/21 11:28:11;;;;;;;6.03;5.43;;;21.60;70.00;;;;;;4977632;28;20456;-73
2021/09/21 11:30:39;;;;;;;5.53;4.90;;;21.00;68.20;;;;;;4976791;28;20994;-74
2021/09/21 11:33:15;;;;;;;6.37;4.97;;;20.20;71.60;;;;;;4976252;28;20496;-74
2021/09/21 11:35:47;;;;;;;4.97;4.47;;;19.90;74.10;;;;;;4976581;28;20470;-74
2021/09/21 11:38:14;;;;;;;5.33;4.57;;;19.60;74.80;;;;;;4976379;28;20797;-74
2021/09/21 11:40:43;;;;;;;6.57;5.10;;;19.40;74.50;;;;;;4976504;28;20947;-74
2021/09/21 11:43:10;;;;;;;6.20;5.47;;;19.70;74.40;;;;;;4976159;28;20443;-74
2021/09/21 11:45:37;;;;;;;6.20;5.30;;;19.70;74.20;;;;;;4977512;28;20885;-74
2021/09/21 11:48:05;;;;;;;6.10;5.33;;;20.60;71.20;;;;;;4976828;28;20481;-74
2021/09/21 11:50:35;;;;;;;6.07;4.90;;;21.40;71.10;;;;;;4976642;28;20859;-74
2021/09/21 11:53:03;;;;;;;7.53;5.90;;;21.90;68.30;;;;;;4976638;28;20564;-74
2021/09/21 11:55:32;;;;;;;6.13;4.93;;;20.90;67.10;;;;;;4976554;28;20825;-73
2021/09/21 11:58:00;;;;;;;5.60;5.00;;;20.30;71.80;;;;;;4976502;28;20543;-74
2021/09/21 12:00:28;;;;;;;6.50;5.77;;;20.50;72.70;;;;;;4976712;28;20455;-74
2021/09/21 12:02:57;;;;;;;7.43;5.43;;;20.00;71.20;;;;;;4976044;28;20547;-73
2021/09/21 12:05:24;;;;;;;7.32;5.80;;;19.10;73.20;;;;;;4976143;28;20508;-74
2021/09/21 12:07:54;;;;;;;7.20;5.50;;;18.50;79.00;;;;;;4976813;28;20281;-74
2021/09/21 12:10:23;;;;;;;8.60;5.57;;;18.60;78.70;;;;;;4976047;28;20530;-74
2021/09/21 12:13:04;;;;;;;8.18;5.80;;;18.70;81.30;;;;;;4975540;28;21004;-73
2021/09/21 12:15:31;;;;;;;7.63;5.17;;;19.10;78.80;;;;;;4975985;28;20281;-74
2021/09/21 12:17:59;;;;;;;7.30;5.83;;;19.20;79.20;;;;;;4975986;28;20470;-74
2021/09/21 12:20:28;;;;;;;7.57;5.33;;;19.20;80.00;;;;;;4975433;28;20954;-74
2021/09/21 12:22:57;;;;;;;8.27;5.90;;;19.30;78.70;;;;;;4975610;28;20442;-73
2021/09/21 12:25:31;;;;;;;7.70;5.90;;;19.00;78.00;;;;;;4976035;28;20277;-73
2021/09/21 12:27:58;;;;;;;6.60;5.25;;;19.00;78.90;;;;;;4976199;28;20807;-74
2021/09/21 12:30:28;;;;;;;7.35;5.40;;;18.50;78.80;;;;;;4975109;28;20309;-73
2021/09/21 12:33:00;;;;;;;7.60;6.00;;;18.40;79.60;;;;;;4975380;28;20592;-74
2021/09/21 12:35:31;;;;;;;7.40;5.57;;;18.20;81.70;;;;;;4975451;28;20233;-73
2021/09/21 12:38:06;;;;;;;8.15;5.82;;;18.20;80.60;;;;;;4975416;28;20297;-73
2021/09/21 12:40:33;;;;;;;7.25;5.85;;;18.20;81.30;;;;;;4975440;28;20216;-73
2021/09/21 12:43:05;;;;;;;7.32;5.50;;;18.50;84.20;;;;;;4975662;28;20301;-74
2021/09/21 12:45:33;;;;;;;6.45;5.57;;;18.60;82.20;;;;;;4976230;28;20283;-73
2021/09/21 12:48:04;;;;;;;8.80;6.10;;;18.70;80.50;;;;;;4975518;28;20258;-74
2021/09/21 12:50:31;;;;;;;6.63;5.40;;;19.00;79.90;;;;;;4975279;28;20943;-74
2021/09/21 12:53:00;;;;;;;7.10;5.63;;;19.00;80.40;;;;;;4975568;28;20837;-73
2021/09/21 12:55:34;;;;;;;7.00;5.63;;;19.00;80.90;;;;;;4975446;28;20475;-73
2021/09/21 12:58:02;;;;;;;7.60;6.20;;;18.90;79.00;;;;;;4975598;28;20300;-74